Weather History for KTMK - January, 2013

Change the Weather History Date:

Monday, January 7, 2013

  Actual Average (KMMV) Record (KMMV)
Temperature  
Mean Temperature 50 °F 40 °F  
Max Temperature 51 °F 47 °F 64 °F (1923)
Min Temperature 48 °F 33 °F 10 °F (1937)
Degree Days  
Heating Degree Days 16 25  
Month to date heating degree days 176  
Since 1 July heating degree days 2181  
Cooling Degree Days 0 0  
Month to date cooling degree days 0  
Year to date cooling degree days 0  
Moisture  
Dew Point 49 °F    
Average Humidity 95    
Maximum Humidity 100    
Minimum Humidity 87    
Precipitation  
Precipitation 0.98 in 0.23 in 1.59 in (1902)
Month to date precipitation 1.54  
Year to date precipitation 1.54  
Sea Level Pressure  
Sea Level Pressure 30.12 in    
Wind  
Wind Speed 7 mph (SSW)    
Max Wind Speed 15 mph    
Max Gust Speed 21 mph    
Visibility 5 miles    
Events Rain    
T = Trace of Precipitation, MM = Missing Value Source: NWS Daily Summary

Daily Weather History Graph

Daily Weather History Graph

Search for Another Location

Airport or City:

Trip Planner

Search our weather history database for the weather conditions in past years. The results will help you decide how hot, cold, wet, or windy it might be!

Date:

Astronomy

Jan. 07, 2013 Rise Set
Actual Time 8:54 AM MST 5:49 PM MST
Civil Twilight 8:20 AM MST 6:23 PM MST
Nautical Twilight 7:43 AM MST 7:00 PM MST
Astronomical Twilight 7:07 AM MST 7:35 PM MST
Moon 4:21 AM MST (1/7) 2:07 PM MST (1/7)
Length of Visible Light 10h 02m
Length of Day
8h 54m
Waning Crescent, 22% of the Moon is Illuminated
Jan 7
Waning Crescent
Jan 11
New
Jan 18
First Quarter
Jan 26
Full
Feb 3
Last Quarter

Hourly Weather History & Observations

Time (MST) Temp. Dew Point Humidity Pressure Visibility Wind Dir Wind Speed Gust Speed Precip Events Conditions
12:15 AM 48.2 °F 44.6 °F 87% 30.06 in 5.0 mi South 13.8 mph 18.4 mph 0.02 in Rain Light Rain
12:35 AM 48.2 °F 44.6 °F 87% 30.05 in 7.0 mi South 8.1 mph - 0.03 in Rain Light Rain
12:55 AM 48.2 °F 44.6 °F 87% 30.06 in 7.0 mi South 9.2 mph - 0.03 in   Drizzle
1:15 AM 48.2 °F 46.4 °F 93% 30.05 in 4.0 mi SSE 8.1 mph - 0.05 in Rain Rain
1:35 AM 48.2 °F 46.4 °F 93% 30.03 in 4.0 mi SSE 3.5 mph - 0.07 in Rain Rain
1:55 AM 48.2 °F 46.4 °F 93% 30.04 in 5.0 mi Calm Calm - 0.07 in   Drizzle
2:15 AM 48.2 °F 46.4 °F 93% 30.04 in 4.0 mi Calm Calm - 0.01 in   Drizzle
2:35 AM 50.0 °F 48.2 °F 94% 30.05 in 4.0 mi South 4.6 mph - 0.02 in   Drizzle
2:55 AM 50.0 °F 48.2 °F 94% 30.03 in 5.0 mi Calm Calm - 0.04 in Rain Rain
3:15 AM 50.0 °F 48.2 °F 94% 30.02 in 4.0 mi South 3.5 mph - 0.01 in   Drizzle
3:35 AM 50.0 °F 48.2 °F 94% 30.03 in 4.0 mi Calm Calm - 0.01 in   Drizzle
3:55 AM 50.0 °F 50.0 °F 100% 30.03 in 5.0 mi South 4.6 mph - 0.02 in   Drizzle
4:15 AM 51.8 °F 50.0 °F 94% 30.02 in 4.0 mi South 6.9 mph - 0.01 in Rain Light Rain
4:35 AM 51.8 °F 50.0 °F 94% 30.01 in 4.0 mi SSW 8.1 mph - 0.01 in Rain Light Rain
4:55 AM 51.8 °F 50.0 °F 94% 30.00 in 3.0 mi SSW 10.4 mph 16.1 mph 0.02 in Rain Rain
5:15 AM 51.8 °F 50.0 °F 94% 30.00 in 4.0 mi SSW 5.8 mph - 0.01 in Rain Rain
5:35 AM 51.8 °F 50.0 °F 94% 29.99 in 5.0 mi SSW 8.1 mph - 0.09 in Rain Heavy Rain
5:55 AM 51.8 °F 50.0 °F 94% 30.00 in 7.0 mi SW 8.1 mph - 0.15 in Rain Rain
6:15 AM 51.8 °F 50.0 °F 94% 30.00 in 2.0 mi SSW 11.5 mph 18.4 mph 0.11 in Rain Rain
6:35 AM 51.8 °F 50.0 °F 94% 30.00 in 5.0 mi SSW 15.0 mph 20.7 mph 0.19 in Rain Heavy Rain
6:55 AM 51.8 °F 50.0 °F 94% 30.00 in 4.0 mi SSW 9.2 mph 18.4 mph 0.30 in Rain Rain
7:15 AM 51.8 °F 50.0 °F 94% 30.01 in 4.0 mi SSW 11.5 mph 18.4 mph 0.11 in Rain Rain
7:35 AM 51.8 °F 50.0 °F 94% 30.01 in 4.0 mi SSW 12.7 mph - 0.16 in Rain Heavy Rain
7:55 AM 51.8 °F 50.0 °F 94% 30.02 in 4.0 mi SSW 10.4 mph - 0.20 in Rain Heavy Rain
8:15 AM 51.8 °F 50.0 °F 94% 30.03 in 3.0 mi SSW 12.7 mph - 0.02 in Rain Heavy Rain
8:35 AM 51.8 °F 50.0 °F 94% 30.04 in 3.0 mi SSW 10.4 mph 16.1 mph 0.07 in Rain Rain
8:55 AM 51.8 °F 51.8 °F 100% 30.04 in 4.0 mi SW 12.7 mph - 0.10 in Rain Light Rain
9:15 AM 51.8 °F 51.8 °F 100% 30.05 in 2.5 mi SW 11.5 mph - 0.01 in   Drizzle
9:35 AM 51.8 °F 51.8 °F 100% 30.07 in 2.5 mi SW 10.4 mph - 0.02 in   Drizzle
9:55 AM 51.8 °F 51.8 °F 100% 30.08 in 2.0 mi SW 10.4 mph 16.1 mph 0.03 in   Drizzle
10:15 AM 51.8 °F 51.8 °F 100% 30.09 in 2.5 mi SW 12.7 mph 17.3 mph N/A   Drizzle
10:35 AM 51.8 °F 51.8 °F 100% 30.10 in 2.5 mi SW 11.5 mph 16.1 mph N/A   Light Drizzle
10:55 AM 51.8 °F 51.8 °F 100% 30.11 in 4.0 mi WSW 11.5 mph - N/A   Overcast
11:35 AM 51.8 °F 51.8 °F 100% 30.12 in 2.0 mi SW 5.8 mph 11.5 mph N/A   Light Drizzle
11:55 AM 51.8 °F 51.8 °F 100% 30.13 in 3.0 mi WSW 9.2 mph - N/A   Overcast
12:15 PM 51.8 °F 50.0 °F 94% 30.14 in 2.5 mi WSW 6.9 mph - N/A Rain Light Rain
12:35 PM 51.8 °F 51.8 °F 100% 30.15 in 3.0 mi SW 8.1 mph - N/A Rain Light Rain
12:55 PM 51.8 °F 50.0 °F 94% 30.15 in 4.0 mi SW 11.5 mph - N/A   Overcast
1:15 PM 51.8 °F 50.0 °F 94% 30.14 in 2.5 mi WSW 4.6 mph - N/A Rain Light Rain
1:35 PM 51.8 °F 50.0 °F 94% 30.14 in 10.0 mi SW 3.5 mph - N/A   Overcast
1:55 PM 51.8 °F 50.0 °F 94% 30.14 in 10.0 mi SW 5.8 mph - N/A   Overcast
2:15 PM 51.8 °F 50.0 °F 94% 30.15 in 4.0 mi WSW 6.9 mph - N/A   Overcast
2:35 PM 51.8 °F 50.0 °F 94% 30.15 in 1.5 mi SW 8.1 mph - 0.01 in   Drizzle
2:55 PM 50.0 °F 50.0 °F 100% 30.17 in 2.0 mi West 3.5 mph - 0.01 in   Overcast
3:15 PM 50.0 °F 50.0 °F 100% 30.18 in 1.8 mi West 8.1 mph - N/A Rain Light Rain
3:35 PM 50.0 °F 48.2 °F 94% 30.18 in 1.5 mi West 6.9 mph - 0.01 in Rain Rain
3:55 PM 50.0 °F 48.2 °F 94% 30.18 in 4.0 mi WSW 4.6 mph - 0.01 in   Overcast
4:15 PM 50.0 °F 48.2 °F 94% 30.19 in 2.5 mi SSW 4.6 mph - N/A Rain Light Rain
4:35 PM 50.0 °F 48.2 °F 94% 30.18 in 5.0 mi SSW 5.8 mph - N/A   Overcast
4:55 PM 50.0 °F 48.2 °F 94% 30.19 in 4.0 mi West 4.6 mph - N/A Rain Light Rain
5:15 PM 50.0 °F 48.2 °F 94% 30.19 in 5.0 mi WSW 3.5 mph - N/A   Overcast
5:35 PM 50.0 °F 48.2 °F 94% 30.19 in 5.0 mi WSW 4.6 mph - N/A   Overcast
5:55 PM 50.0 °F 48.2 °F 94% 30.18 in 5.0 mi SW 4.6 mph - N/A   Overcast
6:15 PM 50.0 °F 48.2 °F 94% 30.21 in 7.0 mi WSW 4.6 mph - N/A   Overcast
6:35 PM 50.0 °F 46.4 °F 87% 30.20 in 7.0 mi SSW 3.5 mph - N/A   Overcast
6:55 PM 50.0 °F 46.4 °F 87% 30.21 in 7.0 mi SW 3.5 mph - N/A   Overcast
7:15 PM 50.0 °F 46.4 °F 87% 30.21 in 7.0 mi SW 3.5 mph - N/A   Overcast
7:35 PM 48.2 °F 46.4 °F 93% 30.22 in 5.0 mi SSW 3.5 mph - N/A   Mostly Cloudy
7:55 PM 48.2 °F 46.4 °F 93% 30.22 in 7.0 mi Calm Calm - N/A   Overcast
8:15 PM 48.2 °F 46.4 °F 93% 30.21 in 5.0 mi SSE 3.5 mph - N/A   Overcast
8:35 PM 48.2 °F 48.2 °F 100% 30.22 in 7.0 mi SSE 4.6 mph - N/A   Overcast
8:55 PM 48.2 °F 46.4 °F 93% 30.22 in 7.0 mi SSE 4.6 mph - N/A   Overcast
9:15 PM 48.2 °F 46.4 °F 93% 30.22 in 7.0 mi SSE 3.5 mph - N/A   Overcast
9:35 PM 48.2 °F 46.4 °F 93% 30.24 in 7.0 mi South 3.5 mph - N/A   Overcast
9:55 PM 48.2 °F 46.4 °F 93% 30.22 in 5.0 mi ESE 3.5 mph - N/A   Overcast
10:15 PM 48.2 °F 46.4 °F 93% 30.22 in 7.0 mi SE 4.6 mph - N/A   Overcast
10:35 PM 48.2 °F 46.4 °F 93% 30.21 in 7.0 mi SE 3.5 mph - N/A   Overcast
10:55 PM 48.2 °F 46.4 °F 93% 30.22 in 5.0 mi SSE 3.5 mph - N/A   Overcast
11:15 PM 48.2 °F 48.2 °F 100% 30.22 in 7.0 mi Calm Calm - N/A   Overcast
11:35 PM 48.2 °F 48.2 °F 100% 30.23 in 7.0 mi Calm Calm - N/A   Overcast
11:55 PM 48.2 °F 48.2 °F 100% 30.23 in 7.0 mi Calm Calm - N/A   Overcast